Time;durP1;ratioP1;P1;durP2;ratioP2;P2;SDS_P1;SDS_P2;PMS_P1;PMS_P2;Temp;Humidity;BMP_temperature;BMP_pressure;BME280_temperature;BME280_humidity;BME280_pressure;Samples;Min_cycle;Max_cycle;Signal;HPM_P1;HPM_P2
2022/05/14 00:01:05;;;;;;;7.55;2.72;;;;;;;14.23;53.61;99067.95;1749572;82;21058;-77
2022/05/14 00:03:33;;;;;;;5.85;3.25;;;;;;;14.16;53.95;99066.61;1724983;81;21512;-78
2022/05/14 00:06:02;;;;;;;3.90;2.87;;;;;;;14.08;54.12;99064.38;1706684;84;21062;-77
2022/05/14 00:08:31;;;;;;;12.45;2.80;;;;;;;14.04;54.39;99061.06;1724640;83;21086;-77
2022/05/14 00:13:44;;;;;;;10.28;2.90;;;;;;;13.99;54.65;99057.82;1724785;83;21118;-77
2022/05/14 00:16:12;;;;;;;10.50;3.40;;;;;;;13.97;54.86;99058.39;1724971;83;21122;-77
2022/05/14 00:18:38;;;;;;;5.92;3.02;;;;;;;13.95;55.11;99054.95;1724837;83;21133;-77
2022/05/14 00:21:05;;;;;;;5.35;2.92;;;;;;;13.92;55.26;99052.50;1724820;83;21101;-77
2022/05/14 00:23:31;;;;;;;6.72;3.00;;;;;;;13.89;55.46;99053.99;1725101;83;21070;-77
2022/05/14 00:25:58;;;;;;;9.30;3.08;;;;;;;13.85;55.56;99052.44;1724990;83;21593;-78
2022/05/14 00:28:25;;;;;;;8.10;2.90;;;;;;;13.80;55.79;99047.87;1725117;83;21259;-77
2022/05/14 00:30:52;;;;;;;4.95;2.67;;;;;;;13.74;55.96;99040.67;1724831;83;21635;-77
2022/05/14 00:33:19;;;;;;;4.47;2.77;;;;;;;13.67;56.35;99045.08;1735221;81;21067;-77
2022/05/14 00:35:45;;;;;;;14.13;3.17;;;;;;;13.59;56.53;99038.03;1755173;81;21476;-77
2022/05/14 00:38:13;;;;;;;10.03;2.95;;;;;;;13.53;57.01;99040.52;1754932;81;21012;-81
2022/05/14 00:40:48;;;;;;;11.25;2.70;;;;;;;13.44;57.47;99039.70;1755233;81;21079;-84
2022/05/14 00:43:15;;;;;;;8.45;2.90;;;;;;;13.38;57.89;99043.52;1754959;81;21248;-80
2022/05/14 00:45:48;;;;;;;10.00;3.00;;;;;;;13.31;58.24;99032.39;1754988;81;21578;-82
2022/05/14 00:48:15;;;;;;;7.33;2.90;;;;;;;13.27;58.41;99032.18;1754655;81;21634;-81
2022/05/14 00:50:46;;;;;;;8.75;2.90;;;;;;;13.24;58.80;99036.30;1755071;81;21199;-82
2022/05/14 00:53:20;;;;;;;6.70;3.20;;;;;;;13.20;59.12;99035.62;1755205;81;22025;-81
2022/05/14 00:55:49;;;;;;;4.22;3.17;;;;;;;13.18;59.23;99032.69;1754606;81;21246;-77
2022/05/14 00:58:37;;;;;;;7.60;3.02;;;;;;;13.13;59.47;99029.41;1755025;81;21091;-77
2022/05/14 01:01:03;;;;;;;10.65;2.90;;;;;;;13.06;59.60;99026.71;1754810;81;21516;-76
2022/05/14 01:03:30;;;;;;;11.68;3.72;;;;;;;13.00;59.92;99024.78;1755185;81;21642;-76
2022/05/14 01:05:59;;;;;;;9.28;3.62;;;;;;;12.93;60.13;99018.13;1755268;81;21124;-77
2022/05/14 01:08:25;;;;;;;6.33;3.40;;;;;;;12.88;60.63;99014.88;1755149;81;21140;-77
2022/05/14 01:10:53;;;;;;;6.28;3.52;;;;;;;12.81;61.00;99012.17;1755183;81;20973;-76
2022/05/14 01:13:19;;;;;;;10.63;3.37;;;;;;;12.76;61.13;99012.84;1755114;81;21073;-76
2022/05/14 01:15:50;;;;;;;16.85;3.58;;;;;;;12.73;61.38;99006.43;1754951;81;22964;-76
2022/05/14 01:18:20;;;;;;;10.80;3.02;;;;;;;12.69;61.67;99004.39;1755135;81;21072;-76
2022/05/14 01:21:08;;;;;;;6.83;3.35;;;;;;;12.67;61.91;99005.41;1755007;81;22259;-76
2022/05/14 01:26:36;;;;;;;5.37;3.17;;;;;;;12.65;62.01;98993.61;1754876;81;21662;-76
2022/05/14 01:29:08;;;;;;;7.60;2.95;;;;;;;12.67;62.39;98994.86;1753618;81;21096;-77
2022/05/14 01:31:36;;;;;;;4.65;3.10;;;;;;;12.62;62.84;99001.24;1754674;81;21064;-77
2022/05/14 01:34:07;;;;;;;8.75;3.55;;;;;;;12.59;63.17;99004.03;1755458;81;22750;-77
2022/05/14 01:36:34;;;;;;;7.55;3.02;;;;;;;12.60;63.09;99008.36;1754819;81;21500;-76
2022/05/14 01:39:01;;;;;;;5.28;2.98;;;;;;;12.59;62.91;98996.11;1755253;81;21049;-77
2022/05/14 01:41:27;;;;;;;6.72;2.92;;;;;;;12.55;63.10;99005.11;1754998;81;21079;-77
2022/05/14 01:43:53;;;;;;;8.90;3.30;;;;;;;12.48;63.31;98998.44;1755407;80;21091;-77
2022/05/14 01:46:20;;;;;;;7.62;3.08;;;;;;;12.41;63.61;98997.05;1754950;81;21181;-77
2022/05/14 01:48:47;;;;;;;4.00;2.90;;;;;;;12.34;63.82;98996.95;1755109;81;21131;-76
2022/05/14 01:51:14;;;;;;;9.55;3.47;;;;;;;12.27;63.90;99005.63;1751780;81;21057;-77
2022/05/14 01:53:41;;;;;;;6.08;3.58;;;;;;;12.17;64.18;99010.53;1738249;82;21146;-77
2022/05/14 01:56:07;;;;;;;6.78;3.20;;;;;;;12.08;64.47;99013.61;1735558;82;21579;-77
2022/05/14 01:58:37;;;;;;;8.85;3.05;;;;;;;11.99;64.71;99012.75;1735183;82;21797;-77
2022/05/14 02:01:21;;;;;;;7.03;3.08;;;;;;;11.89;64.91;99010.52;1734223;82;21097;-77
2022/05/14 02:03:55;;;;;;;8.08;3.12;;;;;;;11.83;65.18;99008.16;1723937;83;21090;-77
2022/05/14 02:06:22;;;;;;;7.30;3.30;;;;;;;11.76;65.15;99001.95;1721703;83;21000;-77
2022/05/14 02:08:51;;;;;;;10.10;3.72;;;;;;;11.70;65.44;99006.59;1723782;83;21031;-77
2022/05/14 02:11:18;;;;;;;10.55;3.17;;;;;;;11.64;65.63;99003.39;1721649;83;21203;-77
2022/05/14 02:13:47;;;;;;;6.12;3.37;;;;;;;11.59;65.75;99004.08;1750711;81;21122;-77
2022/05/14 02:16:13;;;;;;;5.97;3.27;;;;;;;11.53;66.05;98998.17;1724063;83;21023;-77
2022/05/14 02:18:40;;;;;;;5.58;3.20;;;;;;;11.50;66.38;98994.36;1732330;82;20987;-76
2022/05/14 02:21:07;;;;;;;4.00;2.75;;;;;;;11.47;66.67;98995.81;1732374;82;21011;-76
2022/05/14 02:23:36;;;;;;;10.85;3.40;;;;;;;11.44;66.93;98993.31;1732194;82;21252;-76
2022/05/14 02:26:04;;;;;;;5.22;3.12;;;;;;;11.41;67.16;98989.50;1742075;80;21025;-78
2022/05/14 02:28:31;;;;;;;6.87;3.47;;;;;;;11.38;67.43;98984.40;1787945;80;21577;-77
2022/05/14 02:30:58;;;;;;;6.35;3.40;;;;;;;11.37;67.51;98980.05;1787942;80;21147;-77
2022/05/14 02:33:25;;;;;;;5.62;3.92;;;;;;;11.38;67.74;98990.98;1788029;80;21072;-77
2022/05/14 02:35:52;;;;;;;13.72;3.67;;;;;;;11.38;67.84;98981.77;1788138;80;21761;-77
2022/05/14 02:38:18;;;;;;;9.63;3.83;;;;;;;11.41;68.08;98992.61;1758142;80;21341;-77
2022/05/14 02:40:46;;;;;;;7.75;3.67;;;;;;;11.48;68.64;98992.27;1788138;80;21063;-77
2022/05/14 02:43:13;;;;;;;6.97;3.83;;;;;;;11.56;68.75;98981.81;1788144;80;21052;-77
2022/05/14 02:45:40;;;;;;;6.65;3.70;;;;;;;11.62;68.61;98986.81;1787930;80;21582;-77
2022/05/14 02:48:10;;;;;;;10.75;4.50;;;;;;;11.68;68.52;98974.64;1788336;80;21091;-76
2022/05/14 02:50:38;;;;;;;8.23;4.42;;;;;;;11.74;68.58;98975.67;1787759;80;21119;-77
2022/05/14 02:53:05;;;;;;;7.37;4.20;;;;;;;11.81;68.42;98973.59;1788013;80;21571;-78
2022/05/14 02:55:32;;;;;;;11.53;4.65;;;;;;;11.89;68.41;98969.66;1788174;80;21051;-77
2022/05/14 02:57:59;;;;;;;10.85;4.97;;;;;;;11.95;68.52;98975.11;1788038;80;21048;-76
2022/05/14 03:00:25;;;;;;;6.00;4.10;;;;;;;12.03;68.61;98968.16;1788213;80;21147;-77
2022/05/14 03:02:52;;;;;;;10.30;3.98;;;;;;;12.08;68.49;98959.08;1788191;80;20968;-77
2022/05/14 03:05:20;;;;;;;15.03;4.55;;;;;;;12.16;68.30;98957.39;1788133;80;21048;-77
2022/05/14 03:07:47;;;;;;;8.53;5.00;;;;;;;12.21;68.27;98959.33;1787919;80;21021;-77
2022/05/14 03:10:14;;;;;;;11.97;4.42;;;;;;;12.28;68.29;98964.30;1787931;80;21060;-76
2022/05/14 03:12:43;;;;;;;12.30;4.70;;;;;;;12.33;68.40;98968.41;1788198;80;21087;-76
2022/05/14 03:15:10;;;;;;;11.70;4.97;;;;;;;12.38;68.46;98976.09;1788336;80;21044;-77
2022/05/14 03:17:37;;;;;;;18.20;5.08;;;;;;;12.42;68.64;98973.67;1788405;80;21083;-75
2022/05/14 03:20:10;;;;;;;10.48;4.25;;;;;;;12.49;68.53;98971.13;1788258;80;21084;-76
2022/05/14 03:22:38;;;;;;;10.70;4.35;;;;;;;12.56;68.41;98968.56;1788323;80;20988;-75
2022/05/14 03:25:06;;;;;;;6.97;4.37;;;;;;;12.61;68.27;98975.77;1788217;80;21110;-76
2022/05/14 03:27:33;;;;;;;13.93;4.05;;;;;;;12.67;68.05;98970.63;1787911;80;21103;-77
2022/05/14 03:29:59;;;;;;;5.40;3.80;;;;;;;12.71;68.02;98968.68;1788173;80;21051;-77
2022/05/14 03:32:26;;;;;;;12.63;4.58;;;;;;;12.75;67.72;98971.56;1787992;80;21120;-77
2022/05/14 03:34:54;;;;;;;11.57;4.42;;;;;;;12.79;67.51;98975.73;1788352;80;21009;-76
2022/05/14 03:37:24;;;;;;;11.95;4.40;;;;;;;12.82;67.54;98972.94;1788088;80;21129;-76
2022/05/14 03:39:51;;;;;;;8.15;3.83;;;;;;;12.83;67.54;98974.18;1788026;80;21123;-77
2022/05/14 03:42:18;;;;;;;11.80;4.72;;;;;;;12.89;67.53;98978.27;1787940;80;21063;-77
2022/05/14 03:44:48;;;;;;;9.05;3.52;;;;;;;12.95;67.96;98981.92;1776364;80;21133;-77
2022/05/14 03:47:15;;;;;;;5.87;4.08;;;;;;;12.99;68.12;98980.84;1732205;82;21624;-76
2022/05/14 03:49:43;;;;;;;7.25;3.90;;;;;;;13.04;68.05;98982.38;1732276;82;21187;-77
2022/05/14 03:52:11;;;;;;;8.48;3.72;;;;;;;13.08;67.65;98975.98;1729721;81;21563;-77
2022/05/14 03:54:43;;;;;;;5.97;3.05;;;;;;;13.12;67.28;98975.73;1724450;83;21026;-77
2022/05/14 03:57:09;;;;;;;10.23;3.80;;;;;;;13.17;67.05;98968.41;1724733;83;20966;-77
2022/05/14 03:59:36;;;;;;;6.15;4.17;;;;;;;13.24;66.93;98972.06;1724883;83;21000;-77
2022/05/14 04:02:03;;;;;;;7.53;3.65;;;;;;;13.29;67.27;98969.54;1724430;83;21117;-77
2022/05/14 04:04:30;;;;;;;7.30;3.58;;;;;;;13.31;67.10;98965.02;1724546;83;21059;-78
2022/05/14 04:06:59;;;;;;;12.40;4.10;;;;;;;13.37;67.50;98967.36;1724372;83;21077;-77
2022/05/14 04:09:26;;;;;;;10.05;4.10;;;;;;;13.41;68.20;98971.16;1724450;83;21082;-77
2022/05/14 04:11:53;;;;;;;7.40;3.70;;;;;;;13.44;68.53;98968.36;1724662;83;21046;-77
2022/05/14 04:14:21;;;;;;;11.88;4.20;;;;;;;13.52;68.44;98970.95;1724279;83;21204;-77
2022/05/14 04:16:49;;;;;;;11.03;4.00;;;;;;;13.61;68.09;98955.05;1724465;83;21074;-77
2022/05/14 04:19:16;;;;;;;7.60;3.77;;;;;;;13.69;67.39;98962.08;1724441;83;21061;-77
2022/05/14 04:21:42;;;;;;;7.60;3.40;;;;;;;13.74;67.71;98963.15;1724346;83;21066;-77
2022/05/14 04:24:09;;;;;;;11.18;4.25;;;;;;;13.78;67.32;98967.79;1730510;82;21067;-76
2022/05/14 04:26:38;;;;;;;12.03;3.98;;;;;;;13.84;67.17;98961.69;1730487;82;21197;-77
2022/05/14 04:29:04;;;;;;;11.75;3.80;;;;;;;13.90;66.72;98956.50;1730597;82;21087;-77
2022/05/14 04:31:32;;;;;;;8.03;3.17;;;;;;;13.99;66.43;98948.54;1716221;82;21117;-77
2022/05/14 04:33:59;;;;;;;8.78;3.90;;;;;;;14.06;65.97;98943.27;1730401;82;21043;-78
2022/05/14 04:36:26;;;;;;;7.67;3.80;;;;;;;14.16;66.26;98948.87;1730658;82;21145;-77
2022/05/14 04:38:53;;;;;;;8.23;3.35;;;;;;;14.24;65.98;98947.93;1730436;82;21451;-77
2022/05/14 04:41:19;;;;;;;12.78;3.70;;;;;;;14.31;65.87;98946.65;1730709;82;21573;-77
2022/05/14 04:43:47;;;;;;;12.95;3.60;;;;;;;14.40;65.49;98943.44;1715828;82;21074;-77
2022/05/14 04:46:14;;;;;;;10.28;3.80;;;;;;;14.46;64.96;98941.77;1730714;82;21091;-77
2022/05/14 04:48:41;;;;;;;9.18;3.50;;;;;;;14.53;64.57;98951.99;1730911;82;20984;-77
2022/05/14 04:51:07;;;;;;;10.40;3.90;;;;;;;14.55;64.63;98944.80;1730536;82;21855;-77
2022/05/14 04:53:34;;;;;;;13.28;4.28;;;;;;;14.59;65.02;98942.37;1753654;81;20959;-77
2022/05/14 04:56:01;;;;;;;9.25;3.90;;;;;;;14.64;64.81;98950.88;1759982;81;21679;-78
2022/05/14 04:58:28;;;;;;;8.15;3.70;;;;;;;14.69;65.24;98947.48;1759976;81;21142;-77
2022/05/14 05:00:56;;;;;;;6.65;3.70;;;;;;;14.73;65.11;98956.97;1759878;81;21083;-77
2022/05/14 05:03:24;;;;;;;7.45;3.90;;;;;;;14.72;64.51;98961.02;1760105;81;21129;-77
2022/05/14 05:05:55;;;;;;;12.78;4.33;;;;;;;14.67;64.51;98975.86;1760010;81;21071;-77
2022/05/14 05:08:23;;;;;;;7.30;3.83;;;;;;;14.63;64.64;98971.70;1736800;81;21553;-77
2022/05/14 05:10:49;;;;;;;12.23;4.12;;;;;;;14.61;64.19;98995.63;1759995;81;21082;-77
2022/05/14 05:13:19;;;;;;;14.68;4.65;;;;;;;14.63;62.34;98980.97;1760143;81;21069;-77
2022/05/14 05:15:46;;;;;;;12.95;3.27;;;;;;;14.69;62.81;98976.61;1759901;81;21156;-77
2022/05/14 05:18:13;;;;;;;14.45;3.62;;;;;;;14.75;62.34;98965.66;1759875;81;21019;-76
2022/05/14 05:20:42;;;;;;;15.03;3.70;;;;;;;14.80;61.18;98971.53;1759871;81;21189;-75
2022/05/14 05:23:13;;;;;;;13.60;3.40;;;;;;;14.85;61.07;98976.07;1760057;81;21066;-77
2022/05/14 05:25:39;;;;;;;5.25;3.47;;;;;;;14.86;60.10;98974.27;1736188;81;21627;-76
2022/05/14 05:28:06;;;;;;;12.98;3.58;;;;;;;14.82;60.78;98966.98;1760142;81;21810;-77
2022/05/14 05:30:33;;;;;;;8.23;3.30;;;;;;;14.81;60.57;98956.03;1759969;81;21019;-77
2022/05/14 05:33:00;;;;;;;11.10;3.80;;;;;;;14.81;61.37;98967.95;1759713;81;21070;-77
2022/05/14 05:35:27;;;;;;;12.78;3.65;;;;;;;14.82;61.57;98974.92;1760316;81;21050;-75
2022/05/14 05:37:54;;;;;;;7.53;4.28;;;;;;;14.84;61.27;98970.86;1759923;81;21093;-76
2022/05/14 05:40:20;;;;;;;13.78;4.08;;;;;;;14.85;61.16;98972.09;1760241;81;21071;-76
2022/05/14 05:42:47;;;;;;;11.90;3.75;;;;;;;14.88;60.84;98968.88;1759756;81;21000;-76
2022/05/14 05:45:15;;;;;;;17.30;3.55;;;;;;;14.86;60.82;98967.19;1758952;81;21075;-77
2022/05/14 05:47:42;;;;;;;9.00;3.83;;;;;;;14.85;60.61;98966.80;1760163;81;21079;-76
2022/05/14 05:50:09;;;;;;;10.72;4.37;;;;;;;14.86;60.18;98971.16;1759919;81;21058;-75
2022/05/14 05:52:35;;;;;;;13.35;3.95;;;;;;;14.84;60.35;98971.73;1760119;81;21739;-77
2022/05/14 05:57:47;;;;;;;8.30;3.87;;;;;;;14.87;59.80;98972.00;1760179;81;21049;-76
2022/05/14 06:00:18;;;;;;;14.13;4.53;;;;;;;14.90;60.04;98966.53;1760369;81;21006;-76
2022/05/14 06:02:50;;;;;;;13.25;3.77;;;;;;;14.92;60.24;98967.28;1759213;81;21057;-75
2022/05/14 06:05:14;;;;;;;11.80;3.98;;;;;;;14.97;60.47;98963.03;1758571;81;21144;-77
2022/05/14 06:07:42;;;;;;;7.70;3.85;;;;;;;15.03;60.66;98962.17;1759735;81;21568;-76
2022/05/14 06:10:11;;;;;;;8.33;3.67;;;;;;;15.11;60.03;98962.16;1759881;81;21062;-77
2022/05/14 06:12:38;;;;;;;8.03;3.80;;;;;;;15.15;59.53;98970.32;1759760;81;21336;-76
2022/05/14 06:15:10;;;;;;;7.30;4.12;;;;;;;15.16;59.44;98970.23;1760393;81;21023;-76
2022/05/14 06:17:36;;;;;;;11.10;4.12;;;;;;;15.12;59.54;98960.75;1759999;81;21114;-76
2022/05/14 06:20:06;;;;;;;10.55;3.70;;;;;;;15.14;60.08;98959.33;1760090;81;21019;-77
2022/05/14 06:22:32;;;;;;;12.58;3.65;;;;;;;15.17;60.42;98961.31;1759942;81;21054;-76
2022/05/14 06:24:59;;;;;;;8.70;3.92;;;;;;;15.21;59.90;98960.64;1759733;81;21498;-76
2022/05/14 06:27:25;;;;;;;19.15;3.98;;;;;;;15.24;60.65;98963.95;1745121;80;23139;-77
2022/05/14 06:29:52;;;;;;;10.72;4.03;;;;;;;15.33;60.37;98959.02;1697379;83;21161;-76
2022/05/14 06:32:19;;;;;;;9.90;4.15;;;;;;;15.40;59.98;98958.55;1699174;84;21074;-76
2022/05/14 06:34:46;;;;;;;6.05;4.10;;;;;;;15.49;59.54;98957.59;1697297;83;21633;-77
2022/05/14 06:37:15;;;;;;;10.55;4.20;;;;;;;15.56;59.80;98955.75;1698931;84;21315;-76
2022/05/14 06:39:42;;;;;;;8.93;4.12;;;;;;;15.65;59.69;98954.78;1697315;83;21076;-76
2022/05/14 06:42:11;;;;;;;10.65;3.92;;;;;;;15.73;59.87;98957.80;1699026;84;21071;-77
2022/05/14 06:44:37;;;;;;;11.83;4.35;;;;;;;15.79;59.08;98964.08;1697482;84;21071;-76
2022/05/14 06:47:04;;;;;;;8.10;4.17;;;;;;;15.79;58.39;98964.08;1699525;83;21007;-77
2022/05/14 06:49:32;;;;;;;15.32;4.58;;;;;;;15.78;58.95;98971.64;1697441;84;21063;-76
2022/05/14 06:51:59;;;;;;;13.08;4.33;;;;;;;15.81;58.38;98987.37;1698896;83;21071;-76
2022/05/14 06:54:25;;;;;;;7.62;4.37;;;;;;;15.83;58.92;98985.45;1697468;83;21232;-76
2022/05/14 06:56:52;;;;;;;13.22;4.83;;;;;;;15.94;59.31;98986.11;1699037;83;21047;-75
2022/05/14 06:59:18;;;;;;;16.77;5.15;;;;;;;16.07;58.96;98985.68;1697548;83;21436;-76
2022/05/14 07:01:45;;;;;;;10.78;5.35;;;;;;;16.22;57.79;98982.95;1699019;83;21079;-76
2022/05/14 07:07:03;;;;;;;17.98;5.58;;;;;;;16.38;57.19;98980.98;1698857;83;21153;-75
2022/05/14 07:09:30;;;;;;;14.90;5.10;;;;;;;16.47;56.40;98994.10;1697734;84;21064;-77
2022/05/14 07:12:03;;;;;;;16.52;5.20;;;;;;;16.51;55.76;98994.29;1699004;84;21113;-76
2022/05/14 07:14:30;;;;;;;14.28;6.37;;;;;;;16.56;55.53;98990.84;1697453;84;21043;-77
2022/05/14 07:16:56;;;;;;;16.00;6.95;;;;;;;16.65;53.84;98990.20;1698828;83;21073;-76
2022/05/14 07:19:23;;;;;;;17.55;7.05;;;;;;;16.77;52.44;98991.66;1697461;83;21191;-76
2022/05/14 07:21:51;;;;;;;18.77;7.83;;;;;;;16.85;50.99;99001.31;1699170;84;21047;-76
2022/05/14 07:24:24;;;;;;;19.48;8.45;;;;;;;16.90;50.72;98995.20;1697672;83;21127;-77
2022/05/14 07:26:51;;;;;;;25.50;7.10;;;;;;;16.92;50.69;99004.40;1698920;84;21062;-76
2022/05/14 07:29:20;;;;;;;20.40;7.95;;;;;;;16.94;51.34;98998.49;1697800;84;21042;-77
2022/05/14 07:31:48;;;;;;;21.27;8.35;;;;;;;16.97;50.04;99005.77;1698973;84;21116;-76
2022/05/14 07:34:14;;;;;;;16.90;8.05;;;;;;;17.00;50.23;99008.22;1697599;84;21039;-76
2022/05/14 07:36:54;;;;;;;22.02;8.00;;;;;;;17.11;50.62;99005.29;1699067;84;21157;-77
2022/05/14 07:39:22;;;;;;;19.60;8.08;;;;;;;17.22;49.05;99004.91;1692785;83;21063;-77
2022/05/14 07:41:53;;;;;;;18.52;8.70;;;;;;;17.29;48.44;99010.65;1698891;84;21549;-77
2022/05/14 07:44:21;;;;;;;21.50;8.53;;;;;;;17.35;49.13;99015.55;1686855;84;21144;-76
2022/05/14 07:46:49;;;;;;;22.85;8.90;;;;;;;17.35;49.13;99014.21;1739452;82;22053;-77
2022/05/14 07:49:16;;;;;;;26.62;9.25;;;;;;;17.33;48.98;99016.14;1711296;83;21073;-76
2022/05/14 07:51:42;;;;;;;20.50;9.38;;;;;;;17.31;48.69;99017.19;1711473;83;21133;-76
2022/05/14 07:54:09;;;;;;;21.57;10.18;;;;;;;17.29;47.73;99019.95;1711619;83;21089;-76
2022/05/14 07:56:38;;;;;;;20.62;9.43;;;;;;;17.28;47.41;99026.22;1691501;83;21135;-77
2022/05/14 07:59:04;;;;;;;23.42;9.73;;;;;;;17.26;47.57;99021.49;1742705;82;21059;-77
2022/05/14 08:01:31;;;;;;;21.40;9.35;;;;;;;17.24;47.36;99025.59;1742615;82;21015;-76
2022/05/14 08:03:58;;;;;;;23.52;9.35;;;;;;;17.23;47.50;99036.33;1742305;82;21012;-76
2022/05/14 08:06:24;;;;;;;21.70;9.45;;;;;;;17.16;47.55;99039.05;1742255;82;21082;-76
2022/05/14 08:08:51;;;;;;;22.77;9.33;;;;;;;17.05;47.63;99036.66;1742466;82;21738;-76
2022/05/14 08:11:19;;;;;;;27.93;9.45;;;;;;;16.98;48.01;99040.70;1742218;82;21090;-76
2022/05/14 08:13:46;;;;;;;25.62;9.95;;;;;;;16.91;48.51;99042.05;1742618;82;21118;-76
2022/05/14 08:16:13;;;;;;;21.87;10.98;;;;;;;16.87;48.84;99040.58;1742817;82;21027;-83
2022/05/14 08:18:40;;;;;;;22.27;10.65;;;;;;;16.75;48.17;99036.08;1742438;82;21130;-81
2022/05/14 08:26:36;;;;;;;30.75;12.18;;;;;;;16.55;49.70;99040.08;1742625;82;21581;-76
2022/05/14 08:29:03;;;;;;;28.95;12.20;;;;;;;16.49;50.12;99038.66;1738911;80;21523;-76
2022/05/14 08:31:29;;;;;;;28.90;11.80;;;;;;;16.48;50.51;99044.94;1697469;83;21517;-77
2022/05/14 08:33:56;;;;;;;27.35;11.18;;;;;;;16.49;50.57;99044.84;1697372;83;21598;-76
2022/05/14 08:36:22;;;;;;;31.30;11.80;;;;;;;16.51;51.01;99056.69;1728033;83;21062;-76
2022/05/14 08:38:49;;;;;;;27.73;12.18;;;;;;;16.50;50.67;99049.66;1728328;83;21027;-77
2022/05/14 08:41:17;;;;;;;22.90;10.03;;;;;;;16.44;50.55;99048.73;1728023;83;21055;-76
2022/05/14 08:43:50;;;;;;;32.48;11.12;;;;;;;16.42;50.82;99054.63;1728228;83;20976;-75
2022/05/14 08:46:21;;;;;;;27.58;10.20;;;;;;;16.42;51.21;99054.63;1697309;84;21110;-76
2022/05/14 08:48:52;;;;;;;28.45;11.00;;;;;;;16.43;50.88;99049.71;1697264;83;21078;-76
2022/05/14 08:51:22;;;;;;;25.70;10.30;;;;;;;16.48;51.20;99052.91;1698760;83;21005;-76
2022/05/14 08:53:50;;;;;;;27.67;9.83;;;;;;;16.54;51.12;99052.48;1698885;84;21607;-77
2022/05/14 08:56:26;;;;;;;16.10;9.20;;;;;;;16.62;50.56;99051.98;1698869;84;21157;-76
2022/05/14 08:59:15;;;;;;;22.70;8.93;;;;;;;16.72;49.25;99045.94;1697297;83;21095;-76
2022/05/14 09:01:43;;;;;;;21.87;9.23;;;;;;;16.83;49.17;99053.68;1699013;83;21019;-76
2022/05/14 09:04:10;;;;;;;16.57;8.18;;;;;;;16.93;48.39;99056.11;1698741;84;21572;-76
2022/05/14 09:06:39;;;;;;;22.75;8.38;;;;;;;16.99;47.52;99050.84;1698932;84;21051;-76
2022/05/14 09:09:07;;;;;;;24.87;8.80;;;;;;;17.04;47.61;99050.89;1698853;83;21078;-75
2022/05/14 09:11:44;;;;;;;18.65;8.78;;;;;;;17.08;46.56;99055.05;1699199;83;21159;-76
2022/05/14 09:14:23;;;;;;;17.87;7.97;;;;;;;17.15;46.30;99050.66;1698815;84;21051;-76
2022/05/14 09:17:00;;;;;;;28.00;9.20;;;;;;;17.20;45.80;99047.20;1699422;83;21027;-75
2022/05/14 09:19:34;;;;;;;20.27;7.25;;;;;;;17.24;45.46;99050.00;1698950;83;21126;-76
2022/05/14 09:22:09;;;;;;;17.80;7.72;;;;;;;17.30;45.24;99041.61;1699361;84;21019;-75
2022/05/14 09:24:44;;;;;;;15.93;7.47;;;;;;;17.38;45.59;99043.25;1698210;83;21380;-75
2022/05/14 09:27:16;;;;;;;23.45;10.78;;;;;;;17.49;45.07;99044.30;1699102;83;21126;-75
2022/05/14 09:29:44;;;;;;;18.65;9.73;;;;;;;17.57;44.51;99050.77;1727610;82;21495;-75
2022/05/14 09:32:22;;;;;;;23.95;8.85;;;;;;;17.62;44.47;99047.30;1728492;83;21095;-75
2022/05/14 09:34:49;;;;;;;14.70;7.35;;;;;;;17.66;43.66;99046.59;1728157;83;21106;-75
2022/05/14 09:37:18;;;;;;;17.52;7.00;;;;;;;17.68;43.88;99040.68;1728097;82;21513;-75
2022/05/14 09:40:01;;;;;;;15.20;7.30;;;;;;;17.74;44.40;99044.24;1748844;81;21031;-75
2022/05/14 09:42:44;;;;;;;14.07;7.42;;;;;;;17.83;44.01;99036.91;1731889;82;21019;-77
2022/05/14 09:45:32;;;;;;;13.75;7.50;;;;;;;17.91;44.37;99042.22;1732560;82;21130;-75
2022/05/14 09:48:20;;;;;;;12.95;7.45;;;;;;;18.00;43.79;99041.53;1732145;82;21065;-76
2022/05/14 09:50:54;;;;;;;18.85;6.87;;;;;;;18.07;43.77;99042.80;1732620;82;21105;-76
2022/05/14 09:53:32;;;;;;;20.95;7.28;;;;;;;18.11;44.40;99039.43;1732057;82;21104;-76
2022/05/14 09:56:28;;;;;;;13.70;6.25;;;;;;;18.15;44.36;99035.56;1732356;82;21090;-76
2022/05/14 09:59:10;;;;;;;13.10;5.97;;;;;;;18.20;44.52;99042.23;1754173;81;21058;-76
2022/05/14 10:01:44;;;;;;;22.10;5.33;;;;;;;18.28;44.80;99035.52;1717993;81;21074;-76
2022/05/14 10:04:29;;;;;;;11.40;5.12;;;;;;;18.34;44.60;99036.38;1754336;81;20987;-76
2022/05/14 10:07:01;;;;;;;7.25;3.12;;;;;;;18.43;44.51;99038.86;1754124;81;21003;-77
2022/05/14 10:10:08;;;;;;;7.92;3.12;;;;;;;18.47;43.04;99039.82;1753944;81;21060;-77
2022/05/14 10:12:43;;;;;;;5.90;2.77;;;;;;;18.47;42.52;99037.16;1753971;81;21157;-75
2022/05/14 10:15:27;;;;;;;7.28;2.62;;;;;;;18.48;41.81;99038.03;1753538;81;21681;-76
2022/05/14 10:18:50;;;;;;;7.92;2.50;;;;;;;18.43;42.10;99041.03;1759350;80;21217;-76
2022/05/14 10:21:46;;;;;;;6.87;2.20;;;;;;;18.40;41.95;99038.59;1759798;81;21013;-76
2022/05/14 10:27:57;;;;;;;7.95;3.15;;;;;;;18.54;42.69;99032.22;1728136;83;21582;-75
2022/05/14 10:30:28;;;;;;;7.00;3.37;;;;;;;18.52;42.51;99035.00;1729810;82;21019;-76
2022/05/14 10:33:02;;;;;;;10.63;3.55;;;;;;;18.37;41.73;99045.02;1728359;83;21133;-76
2022/05/14 10:35:42;;;;;;;7.80;3.22;;;;;;;18.23;42.35;99033.68;1729841;82;21564;-75
2022/05/14 10:38:29;;;;;;;5.03;2.70;;;;;;;18.10;42.88;99028.40;1728852;82;21607;-76
2022/05/14 10:41:04;;;;;;;10.38;3.17;;;;;;;18.04;42.56;99028.38;1702514;82;21140;-77
2022/05/14 10:44:03;;;;;;;6.05;3.08;;;;;;;18.03;42.98;99026.67;1729932;82;21098;-75
2022/05/14 10:46:31;;;;;;;4.62;2.80;;;;;;;18.10;43.25;99027.07;1730022;82;22206;-77
2022/05/14 10:49:07;;;;;;;3.02;2.35;;;;;;;18.24;42.79;99032.70;1707254;82;21384;-76
2022/05/14 10:51:39;;;;;;;5.67;2.30;;;;;;;18.32;42.40;99026.33;1708199;82;21002;-75
2022/05/14 10:54:06;;;;;;;7.35;2.20;;;;;;;18.42;42.29;99021.17;1729397;81;23140;-76
2022/05/14 10:56:35;;;;;;;6.45;2.10;;;;;;;18.53;42.12;99019.39;1704757;83;21595;-77
2022/05/14 10:59:08;;;;;;;8.30;2.25;;;;;;;18.67;42.04;99017.50;1728897;83;21721;-76
2022/05/14 11:01:56;;;;;;;3.62;2.17;;;;;;;18.78;41.61;99012.67;1729174;83;21007;-75
2022/05/14 11:04:32;;;;;;;4.67;1.67;;;;;;;18.83;40.14;99014.53;1729082;83;21046;-76
2022/05/14 11:07:05;;;;;;;5.53;1.55;;;;;;;18.85;40.38;99011.28;1729360;82;21093;-76
2022/05/14 11:09:43;;;;;;;5.17;1.90;;;;;;;18.86;39.64;99010.30;1729347;83;21002;-74
2022/05/14 11:12:22;;;;;;;7.10;1.50;;;;;;;18.84;39.65;99014.91;1729201;82;21173;-77
2022/05/14 11:14:59;;;;;;;7.58;2.02;;;;;;;18.88;40.54;99014.56;1729454;82;21010;-77
2022/05/14 11:17:33;;;;;;;5.50;1.75;;;;;;;18.99;40.51;99004.88;1729481;82;21130;-77
2022/05/14 11:20:08;;;;;;;7.17;1.50;;;;;;;19.08;40.70;99005.02;1729815;83;21054;-75
2022/05/14 11:22:42;;;;;;;7.67;1.92;;;;;;;19.18;39.91;99006.48;1729627;82;21093;-77
2022/05/14 11:25:20;;;;;;;5.50;1.80;;;;;;;19.27;39.79;99010.24;1728958;83;21105;-74
2022/05/14 11:28:19;;;;;;;3.58;2.00;;;;;;;19.30;38.99;99006.84;1726936;82;21157;-75
2022/05/14 11:30:55;;;;;;;7.83;1.80;;;;;;;19.27;38.89;99017.75;1729363;83;21002;-76
2022/05/14 11:33:31;;;;;;;2.92;1.85;;;;;;;19.31;39.71;99016.52;1729437;82;21074;-75
2022/05/14 11:36:14;;;;;;;6.15;2.35;;;;;;;19.42;38.55;99010.85;1729328;82;21035;-77
2022/05/14 11:38:49;;;;;;;6.42;2.15;;;;;;;19.49;38.61;99020.05;1729450;82;21688;-75
2022/05/14 11:41:32;;;;;;;2.85;2.20;;;;;;;19.53;39.12;99012.16;1730111;82;21076;-77
2022/05/14 11:44:02;;;;;;;5.35;2.22;;;;;;;19.57;39.11;99030.09;1726935;83;21071;-77
2022/05/14 11:46:44;;;;;;;11.68;3.05;;;;;;;19.44;38.53;99025.75;1753142;81;21491;-78
2022/05/14 11:49:38;;;;;;;6.17;3.42;;;;;;;19.25;38.81;99033.03;1753433;81;21043;-77
2022/05/14 11:52:18;;;;;;;7.33;4.10;;;;;;;18.94;39.36;99019.89;1752708;81;21150;-75
2022/05/14 11:55:14;;;;;;;7.22;4.15;;;;;;;18.65;39.98;99040.75;1748722;81;21105;-77
2022/05/14 11:57:45;;;;;;;11.57;3.70;;;;;;;18.40;40.59;99040.41;1732174;81;21117;-76
2022/05/14 12:00:20;;;;;;;8.98;3.65;;;;;;;18.10;41.28;99043.88;1732165;82;21062;-78
2022/05/14 12:03:04;;;;;;;7.50;3.27;;;;;;;17.88;41.79;99034.45;1732085;82;21173;-76
2022/05/14 12:05:42;;;;;;;8.88;4.30;;;;;;;17.75;42.73;99045.08;1731382;82;21124;-75